Time;durP1;ratioP1;P1;durP2;ratioP2;P2;SDS_P1;SDS_P2;PMS_P1;PMS_P2;Temp;Humidity;BMP_temperature;BMP_pressure;BME280_temperature;BME280_humidity;BME280_pressure;Samples;Min_cycle;Max_cycle;Signal;HPM_P1;HPM_P2
2023/01/24 00:00:04;;;;;;;15.55;10.98;;;5.50;99.90;;;;;;5105390;28;20611;-80
2023/01/24 00:02:31;;;;;;;19.77;14.50;;;5.60;99.90;;;;;;5114368;28;20230;-81
2023/01/24 00:04:58;;;;;;;17.98;13.65;;;5.60;99.90;;;;;;5114554;28;20226;-79
2023/01/24 00:07:26;;;;;;;25.55;18.15;;;5.70;99.90;;;;;;5115825;28;20292;-81
2023/01/24 00:09:53;;;;;;;20.45;15.43;;;5.70;99.90;;;;;;5106771;28;20204;-79
2023/01/24 00:12:35;;;;;;;18.42;14.45;;;5.60;99.90;;;;;;5101087;28;20290;-80
2023/01/24 00:15:03;;;;;;;17.42;12.60;;;5.60;99.90;;;;;;5111706;28;20226;-79
2023/01/24 00:17:31;;;;;;;19.88;14.55;;;5.60;99.90;;;;;;5111174;28;20226;-82
2023/01/24 00:19:58;;;;;;;20.55;13.95;;;5.50;99.90;;;;;;5109483;28;20212;-78
2023/01/24 00:22:32;;;;;;;20.60;14.75;;;5.40;99.90;;;;;;5116123;28;20235;-79
2023/01/24 00:24:59;;;;;;;22.02;13.85;;;5.50;99.90;;;;;;5108255;28;20323;-80
2023/01/24 00:27:26;;;;;;;18.83;14.57;;;5.50;99.90;;;;;;5114309;28;20227;-79
2023/01/24 00:29:53;;;;;;;19.85;13.40;;;5.50;99.90;;;;;;5118092;28;20294;-79
2023/01/24 00:32:21;;;;;;;19.20;12.70;;;5.50;99.90;;;;;;5106860;28;20197;-80
2023/01/24 00:34:48;;;;;;;16.48;13.05;;;5.50;99.90;;;;;;5101586;28;20303;-81
2023/01/24 00:37:15;;;;;;;23.00;13.80;;;5.50;99.90;;;;;;5107909;27;20229;-77
2023/01/24 00:39:42;;;;;;;15.40;12.50;;;5.50;99.90;;;;;;5111138;28;20224;-76
2023/01/24 00:42:08;;;;;;;19.05;12.57;;;5.60;99.90;;;;;;5125884;28;20190;-77
2023/01/24 00:44:35;;;;;;;17.88;11.27;;;5.60;99.90;;;;;;5127022;28;20279;-80
2023/01/24 00:47:02;;;;;;;23.38;13.10;;;5.70;99.90;;;;;;5112626;28;20281;-81
2023/01/24 00:49:31;;;;;;;16.17;11.80;;;5.50;99.90;;;;;;5107355;28;20276;-81
2023/01/24 00:52:10;;;;;;;14.95;10.98;;;5.60;99.90;;;;;;5114489;27;20681;-78
2023/01/24 00:54:37;;;;;;;15.32;10.77;;;5.60;99.90;;;;;;5128503;27;20237;-83
2023/01/24 00:57:21;;;;;;;17.83;12.18;;;5.60;99.90;;;;;;5114958;28;20193;-79
2023/01/24 00:59:48;;;;;;;16.02;10.82;;;5.50;99.90;;;;;;5107389;27;20635;-79
2023/01/24 01:02:15;;;;;;;13.70;11.07;;;5.50;99.90;;;;;;5120582;27;20203;-80
2023/01/24 01:04:43;;;;;;;14.93;10.77;;;5.50;99.90;;;;;;5101397;27;20212;-79
2023/01/24 01:07:10;;;;;;;15.27;10.20;;;5.50;99.90;;;;;;5105318;28;20240;-79
2023/01/24 01:09:37;;;;;;;11.02;9.65;;;5.50;99.90;;;;;;5099837;27;20674;-81
2023/01/24 01:12:04;;;;;;;15.48;10.95;;;5.40;99.90;;;;;;5109978;27;20198;-81
2023/01/24 01:14:32;;;;;;;16.52;10.55;;;5.40;99.90;;;;;;5111017;27;20218;-80
2023/01/24 01:16:58;;;;;;;10.07;7.45;;;5.40;99.90;;;;;;5117372;27;20201;-81
2023/01/24 01:19:25;;;;;;;12.25;8.50;;;5.40;99.90;;;;;;5102772;28;20564;-78
2023/01/24 01:21:54;;;;;;;11.57;8.30;;;5.30;99.90;;;;;;5099273;28;20653;-82
2023/01/24 01:24:21;;;;;;;10.55;7.72;;;5.40;99.90;;;;;;5105426;28;20563;-78
2023/01/24 01:26:48;;;;;;;12.43;8.48;;;5.40;99.90;;;;;;5108577;27;20764;-82
2023/01/24 01:29:15;;;;;;;10.52;6.82;;;5.40;99.90;;;;;;5098998;28;20278;-79
2023/01/24 01:31:42;;;;;;;12.80;8.35;;;5.40;99.90;;;;;;5104087;27;20279;-81
2023/01/24 01:34:10;;;;;;;12.30;8.50;;;5.30;99.90;;;;;;5108998;28;20622;-79
2023/01/24 01:36:37;;;;;;;12.35;9.23;;;5.40;99.90;;;;;;5101130;28;20303;-80
2023/01/24 01:39:06;;;;;;;13.73;11.00;;;5.40;99.90;;;;;;5096612;28;20731;-81
2023/01/24 01:41:33;;;;;;;15.77;10.60;;;5.40;99.90;;;;;;5097299;28;20212;-79
2023/01/24 01:47:04;;;;;;;13.85;9.25;;;5.40;99.90;;;;;;5098288;28;20207;-79
2023/01/24 01:49:31;;;;;;;13.07;8.80;;;5.40;99.90;;;;;;5098560;28;20204;-77
2023/01/24 01:52:02;;;;;;;14.25;9.95;;;5.50;99.90;;;;;;5106513;28;20206;-82
2023/01/24 01:54:35;;;;;;;15.00;9.65;;;5.40;99.90;;;;;;5103255;28;20821;-81
2023/01/24 01:57:08;;;;;;;14.85;10.10;;;5.40;99.90;;;;;;5107706;28;20279;-82
2023/01/24 01:59:39;;;;;;;14.40;10.95;;;5.40;99.90;;;;;;5108367;28;20205;-79
2023/01/24 02:02:09;;;;;;;14.43;10.80;;;5.40;99.90;;;;;;5107025;28;20631;-79
2023/01/24 02:04:39;;;;;;;13.50;9.93;;;5.40;99.90;;;;;;5112603;28;20304;-80
2023/01/24 02:07:10;;;;;;;16.45;11.50;;;5.40;99.90;;;;;;5104264;28;20304;-81
2023/01/24 02:09:51;;;;;;;10.50;8.10;;;5.40;99.90;;;;;;5108414;28;20228;-79
2023/01/24 02:12:21;;;;;;;16.27;10.50;;;5.30;99.90;;;;;;5099505;28;20191;-77
2023/01/24 02:17:43;;;;;;;11.10;8.88;;;5.30;99.90;;;;;;5121204;27;20662;-80
2023/01/24 02:20:24;;;;;;;11.52;9.60;;;5.30;99.90;;;;;;5105305;28;20225;-81
2023/01/24 02:23:06;;;;;;;11.35;8.68;;;5.40;99.90;;;;;;5124219;28;20202;-77
2023/01/24 02:25:39;;;;;;;13.38;9.48;;;5.40;99.90;;;;;;5113341;28;20259;-76
2023/01/24 02:28:48;;;;;;;15.75;11.00;;;5.40;99.90;;;;;;5125480;28;20616;-78
2023/01/24 02:31:16;;;;;;;11.13;8.75;;;5.40;99.90;;;;;;5111540;28;20281;-78
2023/01/24 02:33:43;;;;;;;14.82;9.55;;;5.30;99.90;;;;;;5097003;28;20695;-79
2023/01/24 02:36:18;;;;;;;16.10;11.70;;;5.40;99.90;;;;;;5112540;28;20748;-78
2023/01/24 02:38:49;;;;;;;11.13;8.77;;;5.30;99.90;;;;;;5109493;28;20289;-79
2023/01/24 02:41:20;;;;;;;14.23;9.32;;;5.40;99.90;;;;;;5114710;28;20245;-79
2023/01/24 02:43:50;;;;;;;12.02;9.65;;;5.40;99.90;;;;;;5105820;28;20234;-79
2023/01/24 02:46:19;;;;;;;12.77;9.80;;;5.40;99.90;;;;;;5108163;28;20323;-82
2023/01/24 02:48:46;;;;;;;14.77;10.55;;;5.40;99.90;;;;;;5111161;28;20230;-78
2023/01/24 02:53:58;;;;;;;14.30;10.20;;;5.40;99.90;;;;;;5099465;28;20241;-81
2023/01/24 02:59:09;;;;;;;12.70;10.32;;;5.50;99.90;;;;;;5107430;28;20292;-81
2023/01/24 03:01:39;;;;;;;12.65;10.32;;;5.40;99.90;;;;;;5107799;28;20199;-80
2023/01/24 03:04:29;;;;;;;14.18;9.45;;;5.40;99.90;;;;;;5117294;28;20206;-78
2023/01/24 03:06:56;;;;;;;14.32;9.65;;;5.30;99.90;;;;;;5124146;28;20295;-81
2023/01/24 03:09:38;;;;;;;15.70;11.25;;;5.40;99.90;;;;;;5138811;27;20223;-80
2023/01/24 03:34:33;;;;;;;10.05;7.80;;;5.40;99.90;;;;;;5112977;28;20625;-80
2023/01/24 03:37:00;;;;;;;10.73;8.48;;;5.40;99.90;;;;;;5113243;28;20207;-82
2023/01/24 03:42:11;;;;;;;12.57;9.10;;;5.30;99.90;;;;;;5102015;28;20191;-81
2023/01/24 03:44:38;;;;;;;13.10;9.10;;;5.40;99.90;;;;;;5115561;28;20290;-77
2023/01/24 03:47:05;;;;;;;15.98;9.93;;;5.40;99.90;;;;;;5119981;28;20673;-79
2023/01/24 03:52:28;;;;;;;11.15;8.65;;;5.20;99.90;;;;;;5121173;28;20560;-78
2023/01/24 03:54:55;;;;;;;13.05;9.98;;;5.20;99.90;;;;;;5115111;28;20226;-78
2023/01/24 03:57:23;;;;;;;13.45;9.95;;;5.20;99.90;;;;;;5115955;28;20192;-80
2023/01/24 03:59:52;;;;;;;11.70;9.10;;;5.30;99.90;;;;;;5115990;28;20201;-79
2023/01/24 04:02:19;;;;;;;12.30;8.55;;;5.20;99.90;;;;;;5120082;28;20200;-81
2023/01/24 04:07:32;;;;;;;15.00;10.32;;;5.30;99.90;;;;;;5112657;27;20234;-78
2023/01/24 04:10:00;;;;;;;12.32;10.07;;;5.30;99.90;;;;;;5112938;28;20271;-78
2023/01/24 04:12:29;;;;;;;12.77;8.85;;;5.30;99.90;;;;;;5115025;28;20197;-78
2023/01/24 04:14:58;;;;;;;14.93;10.52;;;5.10;99.90;;;;;;5108190;28;20225;-74
2023/01/24 04:17:25;;;;;;;15.30;9.38;;;5.20;99.90;;;;;;5120778;28;20218;-80
2023/01/24 04:19:54;;;;;;;14.20;9.65;;;5.20;99.90;;;;;;5116835;28;20230;-80
2023/01/24 04:22:21;;;;;;;12.93;9.98;;;5.30;99.90;;;;;;5113611;28;20189;-79
2023/01/24 04:24:48;;;;;;;14.85;10.98;;;5.20;99.90;;;;;;5112954;28;20225;-79
2023/01/24 04:27:15;;;;;;;13.73;10.18;;;5.20;99.90;;;;;;5099262;28;20322;-80
2023/01/24 04:29:42;;;;;;;13.07;10.73;;;5.10;99.90;;;;;;5102922;27;20206;-78
2023/01/24 04:32:09;;;;;;;11.95;9.38;;;5.10;99.90;;;;;;5102173;28;20297;-80
2023/01/24 04:34:36;;;;;;;12.60;8.77;;;5.10;99.90;;;;;;5107392;27;20191;-80
2023/01/24 04:37:05;;;;;;;11.07;9.40;;;5.20;99.90;;;;;;5109018;28;20246;-81
2023/01/24 04:39:32;;;;;;;13.82;10.43;;;5.20;99.90;;;;;;5110205;27;20236;-81
2023/01/24 04:41:59;;;;;;;23.50;10.75;;;5.10;99.90;;;;;;5108822;28;20206;-81
2023/01/24 04:44:25;;;;;;;10.13;7.90;;;5.10;99.90;;;;;;5115877;28;20218;-78
2023/01/24 04:46:53;;;;;;;9.75;8.15;;;5.10;99.90;;;;;;5109776;28;20308;-80
2023/01/24 04:49:19;;;;;;;13.80;9.68;;;5.20;99.90;;;;;;5105277;27;20791;-79
2023/01/24 04:51:48;;;;;;;15.43;10.38;;;5.20;99.90;;;;;;5112781;27;20289;-78
2023/01/24 04:54:16;;;;;;;16.75;12.52;;;5.20;99.90;;;;;;5112583;28;20202;-82
2023/01/24 04:56:44;;;;;;;11.43;8.77;;;5.10;99.90;;;;;;5108562;28;20216;-78
2023/01/24 04:59:13;;;;;;;10.80;8.13;;;5.10;99.90;;;;;;5103014;28;20207;-79
2023/01/24 05:01:40;;;;;;;11.00;8.98;;;5.10;99.90;;;;;;5103402;27;20614;-81
2023/01/24 05:04:07;;;;;;;12.60;10.02;;;5.10;99.90;;;;;;5107205;27;20216;-78
2023/01/24 05:06:35;;;;;;;14.05;10.60;;;5.10;99.90;;;;;;5112382;28;20308;-79
2023/01/24 05:09:11;;;;;;;12.43;10.25;;;5.20;99.90;;;;;;5111741;28;20202;-78
2023/01/24 05:11:40;;;;;;;11.05;9.18;;;5.30;99.90;;;;;;5108041;28;20280;-77
2023/01/24 05:14:09;;;;;;;11.65;9.52;;;5.20;99.90;;;;;;5108538;28;20194;-78
2023/01/24 05:16:36;;;;;;;14.15;10.43;;;5.20;99.90;;;;;;5109584;28;20215;-77
2023/01/24 05:19:03;;;;;;;13.02;9.77;;;5.10;99.90;;;;;;5114333;28;20551;-78
2023/01/24 05:21:30;;;;;;;13.68;10.90;;;5.00;99.90;;;;;;5107620;28;20198;-78
2023/01/24 05:23:57;;;;;;;13.32;10.85;;;5.10;99.90;;;;;;5114093;28;20237;-80
2023/01/24 05:26:26;;;;;;;18.23;10.82;;;5.10;99.90;;;;;;5113966;28;20279;-81
2023/01/24 05:28:55;;;;;;;13.73;10.65;;;5.10;99.90;;;;;;5114481;28;20237;-81
2023/01/24 05:31:22;;;;;;;14.48;11.02;;;5.10;99.90;;;;;;5107742;28;20208;-79
2023/01/24 05:33:50;;;;;;;15.57;11.10;;;5.10;99.90;;;;;;5114450;28;20608;-83
2023/01/24 05:36:19;;;;;;;13.85;10.55;;;5.00;99.90;;;;;;5114280;28;20612;-81
2023/01/24 05:38:52;;;;;;;14.60;11.13;;;4.90;99.90;;;;;;5112483;28;20290;-79
2023/01/24 05:41:20;;;;;;;13.20;10.57;;;4.90;99.90;;;;;;5112678;28;20282;-82
2023/01/24 05:43:48;;;;;;;12.90;9.48;;;4.90;99.90;;;;;;5111966;28;20197;-80
2023/01/24 05:46:18;;;;;;;12.75;9.45;;;5.00;99.90;;;;;;5114498;28;20257;-79
2023/01/24 05:48:47;;;;;;;13.93;11.00;;;4.90;99.90;;;;;;5118014;28;20234;-82
2023/01/24 05:51:16;;;;;;;14.90;12.25;;;4.90;99.90;;;;;;5125625;28;20225;-81
2023/01/24 05:53:44;;;;;;;13.40;10.10;;;4.90;99.90;;;;;;5130054;28;20198;-80
2023/01/24 05:56:13;;;;;;;13.73;10.90;;;4.90;99.90;;;;;;5125103;28;20214;-81
2023/01/24 05:58:41;;;;;;;15.38;10.43;;;5.00;99.90;;;;;;5115157;28;20192;-78
2023/01/24 06:01:09;;;;;;;14.80;11.52;;;5.00;99.90;;;;;;5121839;28;20202;-76
2023/01/24 06:03:40;;;;;;;15.15;11.65;;;5.00;99.90;;;;;;5115996;28;20237;-80
2023/01/24 06:06:08;;;;;;;17.17;11.40;;;4.90;99.90;;;;;;5105095;28;20310;-79
2023/01/24 06:08:36;;;;;;;17.27;11.85;;;5.00;99.90;;;;;;5104402;28;20635;-79
2023/01/24 06:11:04;;;;;;;15.25;11.25;;;5.00;99.90;;;;;;5106979;28;20246;-78
2023/01/24 06:13:31;;;;;;;18.30;11.65;;;5.00;99.90;;;;;;5103540;28;20217;-78
2023/01/24 06:16:03;;;;;;;14.00;10.48;;;5.00;99.90;;;;;;5095336;28;20254;-78
2023/01/24 06:18:30;;;;;;;12.18;10.27;;;4.90;99.90;;;;;;5098124;28;20553;-80
2023/01/24 06:21:04;;;;;;;17.52;10.95;;;4.90;99.90;;;;;;5094159;28;20656;-79
2023/01/24 06:23:31;;;;;;;16.58;10.57;;;4.80;99.90;;;;;;5101372;28;20240;-78
2023/01/24 06:25:59;;;;;;;15.98;11.15;;;4.80;99.90;;;;;;5101904;28;20739;-79
2023/01/24 06:28:27;;;;;;;16.02;11.50;;;4.80;99.90;;;;;;5106203;28;20208;-79
2023/01/24 06:31:02;;;;;;;15.60;12.40;;;4.80;99.90;;;;;;5110637;28;20296;-81
2023/01/24 06:33:38;;;;;;;12.52;9.82;;;4.70;99.90;;;;;;5111983;28;20264;-81
2023/01/24 06:36:30;;;;;;;13.23;10.13;;;4.80;99.90;;;;;;5111084;28;20228;-78
2023/01/24 06:38:58;;;;;;;20.15;11.75;;;4.80;99.90;;;;;;5105109;28;20680;-79
2023/01/24 06:41:25;;;;;;;15.70;11.85;;;4.70;99.90;;;;;;5109043;28;20255;-78
2023/01/24 06:43:53;;;;;;;16.55;11.40;;;4.70;99.90;;;;;;5098187;28;20244;-78
2023/01/24 06:46:20;;;;;;;18.27;11.05;;;4.70;99.90;;;;;;5114590;28;20805;-80
2023/01/24 06:48:47;;;;;;;12.93;9.30;;;4.70;99.90;;;;;;5102667;28;20202;-79
2023/01/24 06:51:15;;;;;;;15.30;10.70;;;4.60;99.90;;;;;;5113670;28;20205;-79
2023/01/24 06:53:43;;;;;;;15.23;11.15;;;4.70;99.90;;;;;;5110588;28;20677;-79
2023/01/24 06:56:21;;;;;;;13.95;10.25;;;4.70;99.90;;;;;;5103307;28;20639;-79
2023/01/24 06:58:50;;;;;;;17.30;12.10;;;4.70;99.90;;;;;;5115999;28;20194;-78
2023/01/24 07:01:22;;;;;;;15.93;11.25;;;4.60;99.90;;;;;;5107475;28;20515;-76
2023/01/24 07:03:56;;;;;;;15.43;11.43;;;4.60;99.90;;;;;;5113144;28;20215;-77
2023/01/24 07:06:26;;;;;;;15.30;11.30;;;4.70;99.90;;;;;;5106677;28;20230;-75
2023/01/24 07:08:53;;;;;;;16.75;11.90;;;4.70;99.90;;;;;;5117331;28;20608;-75
2023/01/24 07:11:22;;;;;;;15.73;11.27;;;4.60;99.90;;;;;;5099677;28;20636;-74
2023/01/24 07:13:51;;;;;;;17.98;12.77;;;4.60;99.90;;;;;;5105837;28;20205;-76
2023/01/24 07:16:36;;;;;;;21.52;13.45;;;4.50;99.90;;;;;;5122885;28;20221;-78
2023/01/24 07:19:04;;;;;;;16.60;12.20;;;4.50;99.90;;;;;;5106621;28;20625;-76
2023/01/24 07:21:40;;;;;;;17.42;12.73;;;4.50;99.90;;;;;;5107551;28;20266;-76
2023/01/24 07:24:13;;;;;;;14.40;11.68;;;4.50;99.90;;;;;;5104435;28;20259;-79
2023/01/24 07:26:42;;;;;;;16.88;11.80;;;4.60;99.90;;;;;;5113843;27;20268;-75
2023/01/24 07:29:09;;;;;;;17.40;14.23;;;4.60;99.90;;;;;;5110163;28;20547;-76
2023/01/24 07:31:36;;;;;;;18.00;13.68;;;4.60;99.90;;;;;;5115278;27;20235;-77
2023/01/24 07:34:03;;;;;;;16.13;12.00;;;4.60;99.90;;;;;;5116409;27;20259;-75
2023/01/24 07:36:33;;;;;;;23.33;15.30;;;4.70;99.90;;;;;;5111886;27;20726;-75
2023/01/24 07:39:00;;;;;;;17.42;13.27;;;4.60;99.90;;;;;;5112229;28;20728;-74
2023/01/24 07:41:32;;;;;;;15.98;12.25;;;4.50;99.90;;;;;;5104974;28;20659;-75
2023/01/24 07:43:59;;;;;;;21.33;14.10;;;4.50;99.90;;;;;;5102918;28;20604;-74
2023/01/24 07:46:27;;;;;;;16.50;12.68;;;4.50;99.90;;;;;;5111728;28;20232;-75
2023/01/24 07:48:54;;;;;;;17.50;13.82;;;4.40;99.90;;;;;;5114915;28;20224;-76
2023/01/24 07:51:20;;;;;;;16.38;12.75;;;4.50;99.90;;;;;;5112499;28;20246;-78
2023/01/24 07:53:49;;;;;;;13.52;11.48;;;4.60;99.90;;;;;;5120303;27;20209;-76
2023/01/24 07:56:17;;;;;;;15.90;13.05;;;4.60;99.90;;;;;;5102931;27;20223;-78
2023/01/24 07:58:44;;;;;;;18.40;13.07;;;4.60;99.90;;;;;;5110114;27;20681;-78
2023/01/24 08:01:17;;;;;;;19.17;14.43;;;4.60;99.90;;;;;;5108151;28;20218;-78
2023/01/24 08:03:44;;;;;;;17.30;14.25;;;4.70;99.90;;;;;;5116358;27;20702;-75
2023/01/24 08:06:12;;;;;;;17.38;13.10;;;4.80;99.90;;;;;;5125456;27;20256;-76
2023/01/24 08:08:39;;;;;;;17.63;13.93;;;4.80;99.90;;;;;;5120261;28;20257;-78
2023/01/24 08:11:10;;;;;;;16.73;12.90;;;4.90;99.90;;;;;;5107840;28;20686;-79
2023/01/24 08:13:37;;;;;;;17.23;12.52;;;4.80;99.90;;;;;;5104847;28;20202;-79
2023/01/24 08:16:05;;;;;;;14.13;12.40;;;4.70;99.90;;;;;;5107466;27;20222;-78
2023/01/24 08:18:33;;;;;;;17.17;12.85;;;4.70;99.90;;;;;;5113379;28;20245;-78
2023/01/24 08:21:00;;;;;;;17.17;11.15;;;4.60;99.90;;;;;;5107160;28;20208;-77
2023/01/24 08:23:27;;;;;;;18.05;13.25;;;4.70;99.90;;;;;;5121845;27;20293;-78
2023/01/24 08:25:54;;;;;;;17.00;12.20;;;4.60;99.90;;;;;;5107715;27;20221;-78
2023/01/24 08:28:22;;;;;;;19.08;12.73;;;4.70;99.90;;;;;;5115555;28;20206;-77
2023/01/24 08:30:49;;;;;;;17.08;13.77;;;4.70;99.90;;;;;;5112520;28;20226;-78
2023/01/24 08:33:18;;;;;;;15.50;11.40;;;4.70;99.90;;;;;;5106256;28;20202;-77
2023/01/24 08:35:45;;;;;;;16.08;13.40;;;4.70;99.90;;;;;;5112180;27;20221;-79
2023/01/24 08:38:14;;;;;;;17.08;13.20;;;4.70;99.90;;;;;;5108248;27;20248;-78
2023/01/24 08:40:41;;;;;;;14.68;11.68;;;4.80;99.90;;;;;;5102112;28;20596;-78
2023/01/24 08:43:09;;;;;;;17.67;13.25;;;4.70;99.90;;;;;;5103838;28;20205;-79
2023/01/24 08:45:39;;;;;;;16.55;12.02;;;4.70;99.90;;;;;;5100864;28;20224;-79
2023/01/24 08:48:07;;;;;;;16.92;13.65;;;4.80;99.90;;;;;;5114792;28;20304;-78
2023/01/24 08:50:34;;;;;;;18.45;13.15;;;4.80;99.90;;;;;;5111145;27;20199;-79
2023/01/24 08:53:01;;;;;;;15.02;12.20;;;4.70;99.90;;;;;;5104252;28;20254;-79
2023/01/24 08:55:27;;;;;;;17.52;12.63;;;4.80;99.90;;;;;;5117989;28;20226;-76
2023/01/24 08:58:03;;;;;;;16.30;11.68;;;4.90;99.90;;;;;;5124235;28;20228;-80
2023/01/24 09:00:30;;;;;;;18.77;13.40;;;4.90;99.90;;;;;;5121559;28;20192;-77
2023/01/24 09:03:00;;;;;;;16.65;12.25;;;4.90;99.90;;;;;;5124851;28;20206;-78
2023/01/24 09:05:27;;;;;;;18.15;13.35;;;4.90;99.90;;;;;;5113482;28;20238;-79
2023/01/24 09:08:19;;;;;;;20.15;13.55;;;4.80;99.90;;;;;;5128045;27;20739;-78
2023/01/24 09:10:46;;;;;;;15.60;12.70;;;4.70;99.90;;;;;;5103058;28;20293;-79
2023/01/24 09:13:13;;;;;;;19.33;14.27;;;4.70;99.90;;;;;;5113549;27;20297;-78
2023/01/24 09:15:40;;;;;;;15.52;12.30;;;4.70;99.90;;;;;;5118205;27;20301;-79
2023/01/24 09:18:08;;;;;;;16.85;14.25;;;4.80;99.90;;;;;;5104551;28;20206;-79
2023/01/24 09:20:35;;;;;;;15.07;12.50;;;4.90;99.90;;;;;;5106013;27;20203;-79
2023/01/24 09:23:09;;;;;;;25.02;14.73;;;4.80;99.90;;;;;;5117277;27;20202;-78
2023/01/24 09:25:36;;;;;;;17.48;13.45;;;4.80;99.90;;;;;;5102128;28;20282;-77
2023/01/24 09:28:03;;;;;;;20.08;14.68;;;4.70;99.90;;;;;;5108125;27;20706;-80
2023/01/24 09:30:30;;;;;;;18.27;14.45;;;4.80;99.90;;;;;;5109798;28;20698;-78
2023/01/24 09:32:57;;;;;;;30.52;18.85;;;4.70;99.90;;;;;;5115613;27;20290;-79
2023/01/24 09:35:25;;;;;;;23.73;15.55;;;4.70;99.90;;;;;;5114262;27;20404;-80
2023/01/24 09:37:53;;;;;;;20.05;13.90;;;4.70;99.90;;;;;;5120591;27;20229;-79
2023/01/24 09:40:24;;;;;;;19.25;14.15;;;4.70;99.90;;;;;;5101742;27;20229;-79
2023/01/24 09:43:00;;;;;;;20.02;13.45;;;4.70;99.90;;;;;;5108527;27;20289;-79
2023/01/24 09:45:31;;;;;;;21.23;13.23;;;4.50;99.90;;;;;;5105395;27;20637;-78
2023/01/24 09:48:01;;;;;;;21.60;13.95;;;4.50;99.90;;;;;;5116988;27;20241;-78
2023/01/24 09:50:35;;;;;;;16.40;13.02;;;4.40;99.90;;;;;;5127946;27;20227;-78
2023/01/24 09:53:03;;;;;;;19.65;13.18;;;4.40;99.90;;;;;;5142211;27;20207;-78
2023/01/24 09:55:33;;;;;;;18.23;13.70;;;4.40;99.90;;;;;;5123884;27;20699;-79
2023/01/24 09:58:06;;;;;;;18.60;12.95;;;4.60;99.90;;;;;;5115017;28;20640;-79
2023/01/24 10:00:36;;;;;;;18.52;13.82;;;4.50;99.90;;;;;;5106150;27;20198;-79
2023/01/24 10:03:10;;;;;;;19.20;13.77;;;4.50;99.90;;;;;;5103535;28;20212;-78
2023/01/24 10:05:44;;;;;;;18.42;13.68;;;4.40;99.90;;;;;;5102165;28;20271;-80
2023/01/24 10:08:20;;;;;;;17.80;14.20;;;4.40;99.90;;;;;;5102509;28;20293;-80
2023/01/24 10:10:53;;;;;;;17.33;12.98;;;4.50;99.90;;;;;;5103781;28;20301;-78
2023/01/24 10:13:58;;;;;;;16.90;14.35;;;4.70;99.90;;;;;;5104319;28;20289;-76
2023/01/24 10:17:06;;;;;;;18.83;14.77;;;4.70;99.90;;;;;;5048479;28;20392;-79
2023/01/24 10:19:53;;;;;;;19.27;14.25;;;4.70;99.90;;;;;;5111015;28;20251;-79
2023/01/24 10:22:42;;;;;;;18.20;13.10;;;4.80;99.90;;;;;;5107572;28;20703;-79
2023/01/24 10:25:14;;;;;;;18.10;14.00;;;4.80;99.90;;;;;;5107167;28;20248;-80
2023/01/24 10:27:45;;;;;;;20.67;13.25;;;4.90;99.90;;;;;;5111092;28;20213;-80
2023/01/24 10:30:17;;;;;;;18.00;13.57;;;4.80;99.90;;;;;;5103056;28;20393;-77
2023/01/24 10:32:47;;;;;;;20.65;14.90;;;4.80;99.90;;;;;;5109830;28;20218;-78
2023/01/24 10:35:17;;;;;;;18.13;14.45;;;4.80;99.90;;;;;;5114086;28;20235;-78
2023/01/24 10:37:55;;;;;;;18.60;13.68;;;4.70;99.90;;;;;;5109820;28;20286;-80
2023/01/24 10:40:24;;;;;;;20.38;14.35;;;4.70;99.90;;;;;;5106769;28;20561;-77
2023/01/24 10:42:51;;;;;;;19.02;14.13;;;4.60;99.90;;;;;;5101875;28;20357;-79
2023/01/24 10:45:41;;;;;;;18.77;13.63;;;4.60;99.90;;;;;;5108203;28;20254;-78
2023/01/24 10:48:18;;;;;;;18.50;15.40;;;4.60;99.90;;;;;;5101348;28;20305;-77
2023/01/24 10:50:46;;;;;;;18.30;13.15;;;4.50;99.90;;;;;;5099071;28;20263;-78
2023/01/24 10:53:15;;;;;;;20.20;14.50;;;4.40;99.90;;;;;;5098049;28;20230;-78
2023/01/24 10:55:43;;;;;;;21.10;16.55;;;4.40;99.90;;;;;;5100891;28;20225;-77
2023/01/24 10:58:26;;;;;;;18.88;14.05;;;4.40;99.90;;;;;;5110857;28;20277;-80
2023/01/24 11:00:58;;;;;;;22.67;15.82;;;4.40;99.90;;;;;;5104486;28;20640;-79
2023/01/24 11:03:28;;;;;;;19.73;14.27;;;4.40;99.90;;;;;;5113769;28;20203;-80
2023/01/24 11:05:57;;;;;;;20.38;15.35;;;4.30;99.90;;;;;;5111995;28;20252;-78
2023/01/24 11:08:27;;;;;;;17.95;13.90;;;4.30;99.90;;;;;;5116821;27;20209;-78
2023/01/24 11:10:56;;;;;;;22.52;14.15;;;4.30;99.90;;;;;;5104787;28;20629;-78
2023/01/24 11:13:30;;;;;;;20.50;14.48;;;4.30;99.90;;;;;;5100067;27;20210;-78
2023/01/24 11:16:02;;;;;;;22.20;13.93;;;4.30;99.90;;;;;;5097876;28;20222;-78
2023/01/24 11:18:30;;;;;;;19.02;15.13;;;4.30;99.90;;;;;;5100137;28;20613;-79
2023/01/24 11:21:09;;;;;;;18.10;12.82;;;4.30;99.90;;;;;;5097524;27;20384;-78
2023/01/24 11:23:38;;;;;;;18.83;13.23;;;4.30;99.90;;;;;;5101436;27;20198;-80
2023/01/24 11:26:22;;;;;;;19.17;14.07;;;4.20;99.90;;;;;;5114028;28;20300;-79
2023/01/24 11:28:59;;;;;;;17.83;12.75;;;4.20;99.90;;;;;;5101298;28;20264;-78
2023/01/24 11:31:33;;;;;;;14.65;11.43;;;4.30;99.90;;;;;;5113427;27;20239;-80
2023/01/24 11:34:31;;;;;;;16.80;11.32;;;4.30;99.90;;;;;;5115329;28;20223;-78
2023/01/24 11:37:08;;;;;;;17.67;11.27;;;4.20;99.90;;;;;;5117314;28;20213;-79
2023/01/24 11:39:47;;;;;;;15.45;12.45;;;4.20;99.90;;;;;;5122130;28;20190;-78
2023/01/24 11:42:21;;;;;;;19.50;13.60;;;4.30;99.90;;;;;;5122611;28;20233;-79
2023/01/24 11:45:05;;;;;;;20.70;13.70;;;4.30;99.90;;;;;;5122466;28;20698;-77
2023/01/24 11:47:37;;;;;;;18.75;13.88;;;4.30;99.90;;;;;;5108681;28;20231;-79
2023/01/24 11:50:25;;;;;;;20.40;14.70;;;4.40;99.90;;;;;;5117066;28;20276;-80
2023/01/24 11:53:05;;;;;;;23.17;13.63;;;4.40;99.90;;;;;;5115561;28;20279;-80
2023/01/24 11:55:45;;;;;;;23.13;12.93;;;4.40;99.90;;;;;;5115135;27;20221;-79
2023/01/24 11:58:31;;;;;;;19.38;13.68;;;4.40;99.90;;;;;;5117196;28;20594;-81
2023/01/24 12:01:09;;;;;;;19.35;13.80;;;4.40;99.90;;;;;;5115371;27;20663;-78
2023/01/24 12:04:21;;;;;;;18.67;13.50;;;4.50;99.90;;;;;;5123219;28;20283;-79
2023/01/24 12:07:03;;;;;;;19.40;13.68;;;4.50;99.90;;;;;;5054948;28;20702;-79
2023/01/24 12:09:36;;;;;;;20.65;13.90;;;4.60;99.90;;;;;;5039129;28;20660;-80
2023/01/24 12:12:14;;;;;;;20.92;14.65;;;4.60;99.90;;;;;;5084037;28;20278;-82
2023/01/24 12:15:18;;;;;;;24.80;15.40;;;4.50;99.90;;;;;;5108252;28;20250;-78
2023/01/24 12:18:16;;;;;;;19.83;15.18;;;4.50;99.90;;;;;;5098808;28;20562;-80
2023/01/24 12:21:01;;;;;;;17.55;13.52;;;4.50;99.90;;;;;;5106537;28;20218;-79
2023/01/24 12:23:36;;;;;;;17.95;12.75;;;4.60;99.90;;;;;;5109837;28;20198;-79
2023/01/24 12:26:11;;;;;;;20.55;15.68;;;4.70;99.90;;;;;;5099712;27;20266;-80
2023/01/24 12:28:45;;;;;;;15.32;12.10;;;4.70;99.90;;;;;;5104435;28;20241;-78
2023/01/24 12:31:19;;;;;;;16.35;13.07;;;4.70;99.90;;;;;;5121872;27;20250;-78
2023/01/24 12:33:54;;;;;;;17.50;13.50;;;4.80;99.90;;;;;;5102695;27;20215;-78
2023/01/24 12:36:33;;;;;;;17.63;12.57;;;4.70;99.90;;;;;;5108654;27;20257;-80
2023/01/24 12:39:05;;;;;;;19.95;13.30;;;4.60;99.90;;;;;;5106272;28;20194;-77
2023/01/24 12:41:34;;;;;;;20.95;13.65;;;4.40;99.90;;;;;;5109485;28;20201;-79
2023/01/24 12:44:12;;;;;;;15.57;13.75;;;4.30;99.90;;;;;;5112847;28;20608;-79
2023/01/24 12:46:42;;;;;;;17.98;13.95;;;4.30;99.90;;;;;;5112347;28;20324;-78
2023/01/24 12:49:20;;;;;;;17.15;12.30;;;4.30;99.90;;;;;;5113376;28;20250;-79
2023/01/24 12:51:54;;;;;;;26.23;14.57;;;4.40;99.90;;;;;;5111951;28;20229;-79
2023/01/24 12:54:31;;;;;;;20.33;13.95;;;4.40;99.90;;;;;;5105076;28;20194;-79
2023/01/24 12:57:01;;;;;;;15.23;13.25;;;4.50;99.90;;;;;;5108163;28;20244;-79
2023/01/24 12:59:33;;;;;;;17.95;13.52;;;4.50;99.90;;;;;;5110157;28;20695;-79
2023/01/24 13:02:28;;;;;;;19.80;13.73;;;4.40;99.90;;;;;;5110273;28;20239;-79
2023/01/24 13:05:10;;;;;;;23.02;14.32;;;4.40;99.90;;;;;;5111414;27;20229;-79
2023/01/24 13:07:51;;;;;;;16.77;11.75;;;4.50;99.90;;;;;;5114269;28;20202;-80
2023/01/24 13:10:28;;;;;;;16.05;13.40;;;4.50;99.90;;;;;;5127039;28;20202;-79
2023/01/24 13:12:58;;;;;;;19.85;13.27;;;4.50;99.90;;;;;;5119323;28;20227;-78
2023/01/24 13:15:37;;;;;;;20.80;14.57;;;4.50;99.90;;;;;;5124397;27;20294;-80
2023/01/24 13:18:23;;;;;;;17.13;13.18;;;4.50;99.90;;;;;;5119688;28;20193;-79
2023/01/24 13:21:04;;;;;;;17.05;12.15;;;4.50;99.90;;;;;;5116772;27;20289;-79
2023/01/24 13:23:52;;;;;;;17.33;13.23;;;4.50;99.90;;;;;;5117141;27;20195;-79
2023/01/24 13:26:53;;;;;;;17.77;12.55;;;4.50;99.90;;;;;;5110487;27;20659;-78
2023/01/24 13:29:38;;;;;;;18.50;13.95;;;4.60;99.90;;;;;;5115395;28;20220;-78
2023/01/24 13:32:11;;;;;;;17.85;13.73;;;4.60;99.90;;;;;;5109900;27;20747;-78
2023/01/24 13:34:44;;;;;;;18.17;13.15;;;4.70;99.90;;;;;;5123957;27;20194;-79
2023/01/24 13:37:18;;;;;;;19.40;12.85;;;4.70;99.90;;;;;;5110711;28;20256;-79
2023/01/24 13:39:47;;;;;;;16.58;12.48;;;4.70;99.90;;;;;;5115923;27;20204;-80
2023/01/24 13:42:23;;;;;;;17.20;13.85;;;4.70;99.90;;;;;;5119878;28;20691;-79